Time;durP1;ratioP1;P1;durP2;ratioP2;P2;SDS_P1;SDS_P2;PMS_P1;PMS_P2;Temp;Humidity;BMP_temperature;BMP_pressure;BME280_temperature;BME280_humidity;BME280_pressure;Samples;Min_cycle;Max_cycle;Signal;HPM_P1;HPM_P2
2024/03/05 00:00:09;;;;;;;;;;;;;;;;;;5066995;28;20361;-77
2024/03/05 00:02:36;;;;;;;;;;;;;;;;;;5062651;28;19954;-76
2024/03/05 00:05:04;;;;;;;;;;;;;;;;;;5062512;28;20014;-77
2024/03/05 00:07:31;;;;;;;;;;;;;;;;;;5070480;28;19935;-76
2024/03/05 00:09:58;;;;;;;;;;;;;;;;;;5068007;28;20383;-78
2024/03/05 00:12:25;;;;;;;;;;;;;;;;;;5076726;28;20035;-79
2024/03/05 00:14:52;;;;;;;;;;;;;;;;;;5067801;28;19937;-79
2024/03/05 00:17:19;;;;;;;;;;;;;;;;;;5063416;28;20015;-80
2024/03/05 00:19:46;;;;;;;;;;;;;;;;;;5065567;28;20013;-79
2024/03/05 00:22:13;;;;;;;;;;;;;;;;;;5067795;28;20016;-78
2024/03/05 00:24:40;;;;;;;;;;;;;;;;;;5073367;28;20047;-79
2024/03/05 00:27:08;;;;;;;;;;;;;;;;;;5069428;28;19964;-79
2024/03/05 00:29:36;;;;;;;;;;;;;;;;;;5069015;28;19925;-76
2024/03/05 00:32:03;;;;;;;;;;;;;;;;;;5068452;28;20374;-78
2024/03/05 00:34:30;;;;;;;;;;;;;;;;;;5068251;28;19932;-79
2024/03/05 00:36:57;;;;;;;;;;;;;;;;;;5068296;28;20035;-79
2024/03/05 00:39:24;;;;;;;;;;;;;;;;;;5068744;28;19928;-78
2024/03/05 00:41:51;;;;;;;;;;;;;;;;;;5065489;28;20042;-80
2024/03/05 00:44:18;;;;;;;;;;;;;;;;;;5066717;28;20023;-78
2024/03/05 00:46:45;;;;;;;;;;;;;;;;;;5065514;28;19982;-78
2024/03/05 00:49:12;;;;;;;;;;;;;;;;;;5065745;28;19928;-79
2024/03/05 00:51:40;;;;;;;;;;;;;;;;;;5068541;28;20395;-80
2024/03/05 00:54:07;;;;;;;;;;;;;;;;;;5068790;28;20056;-79
2024/03/05 00:56:34;;;;;;;;;;;;;;;;;;5068824;28;20279;-80
2024/03/05 00:59:01;;;;;;;;;;;;;;;;;;5058516;28;19964;-78
2024/03/05 01:01:29;;;;;;;;;;;;;;;;;;5056727;28;20336;-78
2024/03/05 01:03:56;;;;;;;;;;;;;;;;;;5068296;28;19928;-79
2024/03/05 01:06:23;;;;;;;;;;;;;;;;;;5068454;28;19928;-77
2024/03/05 01:08:50;;;;;;;;;;;;;;;;;;5068187;28;20027;-79
2024/03/05 01:11:17;;;;;;;;;;;;;;;;;;5071023;28;20027;-78
2024/03/05 01:13:44;;;;;;;;;;;;;;;;;;5070167;28;20007;-78
2024/03/05 01:16:11;;;;;;;;;;;;;;;;;;5068603;28;19971;-78
2024/03/05 01:18:38;;;;;;;;;;;;;;;;;;5072076;28;20031;-78
2024/03/05 01:21:06;;;;;;;;;;;;;;;;;;5071585;28;20007;-78
2024/03/05 01:23:33;;;;;;;;;;;;;;;;;;5071432;28;19929;-77
2024/03/05 01:26:00;;;;;;;;;;;;;;;;;;5071443;28;19935;-76
2024/03/05 01:28:28;;;;;;;;;;;;;;;;;;5070863;28;20015;-77
2024/03/05 01:30:55;;;;;;;;;;;;;;;;;;5071778;28;20027;-77
2024/03/05 01:33:22;;;;;;;;;;;;;;;;;;5068540;28;20005;-78
2024/03/05 01:35:51;;;;;;;;;;;;;;;;;;5070912;28;19977;-76
2024/03/05 01:38:18;;;;;;;;;;;;;;;;;;5069771;28;19929;-79
2024/03/05 01:40:45;;;;;;;;;;;;;;;;;;5071792;28;20019;-78
2024/03/05 01:43:12;;;;;;;;;;;;;;;;;;5075322;28;19928;-77
2024/03/05 01:45:39;;;;;;;;;;;;;;;;;;5071260;28;20017;-77
2024/03/05 01:48:08;;;;;;;;;;;;;;;;;;5070667;28;20534;-77
2024/03/05 01:50:35;;;;;;;;;;;;;;;;;;5068880;28;20040;-78
2024/03/05 01:53:02;;;;;;;;;;;;;;;;;;5068619;28;19982;-77
2024/03/05 01:55:29;;;;;;;;;;;;;;;;;;5063068;28;19963;-78
2024/03/05 01:57:57;;;;;;;;;;;;;;;;;;5069089;28;20044;-77
2024/03/05 02:00:24;;;;;;;;;;;;;;;;;;5078211;28;20007;-77
2024/03/05 02:02:51;;;;;;;;;;;;;;;;;;5061762;28;19986;-75
2024/03/05 02:05:18;;;;;;;;;;;;;;;;;;5072358;28;19936;-77
2024/03/05 02:07:45;;;;;;;;;;;;;;;;;;5070868;28;20013;-77
2024/03/05 02:10:12;;;;;;;;;;;;;;;;;;5072016;28;19932;-77
2024/03/05 02:12:40;;;;;;;;;;;;;;;;;;5070384;28;20380;-76
2024/03/05 02:15:11;;;;;;;;;;;;;;;;;;5070688;28;19928;-76
2024/03/05 02:17:38;;;;;;;;;;;;;;;;;;5067610;28;19936;-76
2024/03/05 02:20:09;;;;;;;;;;;;;;;;;;5070142;28;19929;-76
2024/03/05 02:22:36;;;;;;;;;;;;;;;;;;5065618;28;19958;-79
2024/03/05 02:25:03;;;;;;;;;;;;;;;;;;5065996;28;20005;-77
2024/03/05 02:27:32;;;;;;;;;;;;;;;;;;5070699;28;19928;-79
2024/03/05 02:29:59;;;;;;;;;;;;;;;;;;5069300;28;20011;-77
2024/03/05 02:32:26;;;;;;;;;;;;;;;;;;5069758;28;19929;-78
2024/03/05 02:34:54;;;;;;;;;;;;;;;;;;5070211;28;19964;-79
2024/03/05 02:37:21;;;;;;;;;;;;;;;;;;5069984;28;20395;-76
2024/03/05 02:39:48;;;;;;;;;;;;;;;;;;5068819;28;19928;-79
2024/03/05 02:42:15;;;;;;;;;;;;;;;;;;5069286;28;19928;-77
2024/03/05 02:44:42;;;;;;;;;;;;;;;;;;5069534;28;19968;-76
2024/03/05 02:47:09;;;;;;;;;;;;;;;;;;5064893;28;20383;-76
2024/03/05 02:49:37;;;;;;;;;;;;;;;;;;5066121;28;19928;-76
2024/03/05 02:52:04;;;;;;;;;;;;;;;;;;5066408;28;19928;-78
2024/03/05 02:54:33;;;;;;;;;;;;;;;;;;5072665;28;19928;-77
2024/03/05 02:57:00;;;;;;;;;;;;;;;;;;5063641;28;20018;-77
2024/03/05 02:59:27;;;;;;;;;;;;;;;;;;5072603;28;19933;-78
2024/03/05 03:01:54;;;;;;;;;;;;;;;;;;5060781;28;19929;-77
2024/03/05 03:04:21;;;;;;;;;;;;;;;;;;5066064;28;20030;-80
2024/03/05 03:06:48;;;;;;;;;;;;;;;;;;5060398;28;19963;-77
2024/03/05 03:09:15;;;;;;;;;;;;;;;;;;5069729;28;19972;-78
2024/03/05 03:11:43;;;;;;;;;;;;;;;;;;5059559;28;19956;-77
2024/03/05 03:14:11;;;;;;;;;;;;;;;;;;5067241;28;19928;-78
2024/03/05 03:16:40;;;;;;;;;;;;;;;;;;5065535;28;19928;-76
2024/03/05 03:19:07;;;;;;;;;;;;;;;;;;5067029;28;19928;-77
2024/03/05 03:21:34;;;;;;;;;;;;;;;;;;5068840;28;20023;-76
2024/03/05 03:24:01;;;;;;;;;;;;;;;;;;5076996;28;19928;-75
2024/03/05 03:26:28;;;;;;;;;;;;;;;;;;5069167;28;19935;-75
2024/03/05 03:28:55;;;;;;;;;;;;;;;;;;5062730;28;20418;-76
2024/03/05 03:31:22;;;;;;;;;;;;;;;;;;5067919;28;19978;-76
2024/03/05 03:33:49;;;;;;;;;;;;;;;;;;5068604;28;19928;-76
2024/03/05 03:36:16;;;;;;;;;;;;;;;;;;5069207;28;19967;-76
2024/03/05 03:38:44;;;;;;;;;;;;;;;;;;5068725;28;19928;-76
2024/03/05 03:41:11;;;;;;;;;;;;;;;;;;5068591;28;20363;-74
2024/03/05 03:43:38;;;;;;;;;;;;;;;;;;5069173;28;20030;-75
2024/03/05 03:46:05;;;;;;;;;;;;;;;;;;5068905;28;19964;-76
2024/03/05 03:48:32;;;;;;;;;;;;;;;;;;5061157;28;20044;-75
2024/03/05 03:50:59;;;;;;;;;;;;;;;;;;5064589;28;20375;-76
2024/03/05 03:53:26;;;;;;;;;;;;;;;;;;5069017;28;20032;-74
2024/03/05 03:55:53;;;;;;;;;;;;;;;;;;5069335;28;20007;-76
2024/03/05 03:58:20;;;;;;;;;;;;;;;;;;5068313;28;20457;-75
2024/03/05 04:00:47;;;;;;;;;;;;;;;;;;5068600;28;20045;-75
2024/03/05 04:03:15;;;;;;;;;;;;;;;;;;5068566;28;19951;-76
2024/03/05 04:05:44;;;;;;;;;;;;;;;;;;5067815;28;19933;-76
2024/03/05 04:08:11;;;;;;;;;;;;;;;;;;5069041;28;19928;-74
2024/03/05 04:10:38;;;;;;;;;;;;;;;;;;5069028;28;20019;-75
2024/03/05 04:13:04;;;;;;;;;;;;;;;;;;5060938;28;19975;-77
2024/03/05 04:15:31;;;;;;;;;;;;;;;;;;5068522;28;20426;-75
2024/03/05 04:17:58;;;;;;;;;;;;;;;;;;5068780;28;19980;-75
2024/03/05 04:20:26;;;;;;;;;;;;;;;;;;5069223;28;19928;-74
2024/03/05 04:22:53;;;;;;;;;;;;;;;;;;5057515;28;19924;-76
2024/03/05 04:25:25;;;;;;;;;;;;;;;;;;5066250;28;19959;-77
2024/03/05 04:27:52;;;;;;;;;;;;;;;;;;5060297;28;19939;-77
2024/03/05 04:30:19;;;;;;;;;;;;;;;;;;5068353;28;19928;-77
2024/03/05 04:32:49;;;;;;;;;;;;;;;;;;5064657;28;19928;-77
2024/03/05 04:35:16;;;;;;;;;;;;;;;;;;5079577;28;19929;-77
2024/03/05 04:37:43;;;;;;;;;;;;;;;;;;5068179;28;19929;-75
2024/03/05 04:40:11;;;;;;;;;;;;;;;;;;5066951;28;20019;-76
2024/03/05 04:42:38;;;;;;;;;;;;;;;;;;5060005;28;19936;-76
2024/03/05 04:45:05;;;;;;;;;;;;;;;;;;5064930;28;20019;-74
2024/03/05 04:47:32;;;;;;;;;;;;;;;;;;5070796;28;20815;-75
2024/03/05 04:49:59;;;;;;;;;;;;;;;;;;5061322;28;19935;-75
2024/03/05 04:52:27;;;;;;;;;;;;;;;;;;5069137;28;19928;-75
2024/03/05 04:54:55;;;;;;;;;;;;;;;;;;5072668;28;19994;-75
2024/03/05 04:57:22;;;;;;;;;;;;;;;;;;5060631;28;20020;-74
2024/03/05 04:59:49;;;;;;;;;;;;;;;;;;5069569;28;19925;-79
2024/03/05 05:02:17;;;;;;;;;;;;;;;;;;5070146;28;19960;-81
2024/03/05 05:04:44;;;;;;;;;;;;;;;;;;5060916;28;20303;-80
2024/03/05 05:07:11;;;;;;;;;;;;;;;;;;5072286;28;19968;-79
2024/03/05 05:09:40;;;;;;;;;;;;;;;;;;5072385;28;19943;-77
2024/03/05 05:12:07;;;;;;;;;;;;;;;;;;5072485;28;19928;-78
2024/03/05 05:14:34;;;;;;;;;;;;;;;;;;5070848;28;20013;-77
2024/03/05 05:17:01;;;;;;;;;;;;;;;;;;5072575;28;20027;-78
2024/03/05 05:19:28;;;;;;;;;;;;;;;;;;5080474;28;20023;-78
2024/03/05 05:21:55;;;;;;;;;;;;;;;;;;5075809;28;20015;-78
2024/03/05 05:24:23;;;;;;;;;;;;;;;;;;5070199;28;19933;-78
2024/03/05 05:26:50;;;;;;;;;;;;;;;;;;5070846;28;20349;-78
2024/03/05 05:29:17;;;;;;;;;;;;;;;;;;5069389;28;20019;-77
2024/03/05 05:31:45;;;;;;;;;;;;;;;;;;5070711;28;19935;-79
2024/03/05 05:34:12;;;;;;;;;;;;;;;;;;5071606;28;19975;-78
2024/03/05 05:36:39;;;;;;;;;;;;;;;;;;5059450;28;20023;-78
2024/03/05 05:39:07;;;;;;;;;;;;;;;;;;5071102;28;20368;-78
2024/03/05 05:41:34;;;;;;;;;;;;;;;;;;5071295;28;20303;-78
2024/03/05 05:44:03;;;;;;;;;;;;;;;;;;5071933;28;19977;-77
2024/03/05 05:46:32;;;;;;;;;;;;;;;;;;5070896;28;19935;-78
2024/03/05 05:49:05;;;;;;;;;;;;;;;;;;5070874;28;20443;-78
2024/03/05 05:51:32;;;;;;;;;;;;;;;;;;5070530;28;19933;-77
2024/03/05 05:54:00;;;;;;;;;;;;;;;;;;5071324;28;20027;-78
2024/03/05 05:56:27;;;;;;;;;;;;;;;;;;5068234;28;19929;-78
2024/03/05 05:58:55;;;;;;;;;;;;;;;;;;5071304;28;20043;-76
2024/03/05 06:01:22;;;;;;;;;;;;;;;;;;5070898;28;19933;-78
2024/03/05 06:03:49;;;;;;;;;;;;;;;;;;5059056;28;19929;-79
2024/03/05 06:06:19;;;;;;;;;;;;;;;;;;5070845;28;20265;-78
2024/03/05 06:08:46;;;;;;;;;;;;;;;;;;5070608;28;19929;-79
2024/03/05 06:11:13;;;;;;;;;;;;;;;;;;5071866;28;19929;-77
2024/03/05 06:13:41;;;;;;;;;;;;;;;;;;5071396;28;19935;-79
2024/03/05 06:16:08;;;;;;;;;;;;;;;;;;5071145;28;19928;-78
2024/03/05 06:18:36;;;;;;;;;;;;;;;;;;5072099;28;20321;-77
2024/03/05 06:21:03;;;;;;;;;;;;;;;;;;5066120;28;19968;-78
2024/03/05 06:23:30;;;;;;;;;;;;;;;;;;5066981;28;20015;-78
2024/03/05 06:25:58;;;;;;;;;;;;;;;;;;5070551;28;19978;-77
2024/03/05 06:28:25;;;;;;;;;;;;;;;;;;5060725;28;20038;-77
2024/03/05 06:30:52;;;;;;;;;;;;;;;;;;5070274;28;19962;-78
2024/03/05 06:33:20;;;;;;;;;;;;;;;;;;5070644;28;20475;-76
2024/03/05 06:35:48;;;;;;;;;;;;;;;;;;5061001;28;20018;-78
2024/03/05 06:38:15;;;;;;;;;;;;;;;;;;5070637;28;19932;-77
2024/03/05 06:40:42;;;;;;;;;;;;;;;;;;5076956;28;19932;-78
2024/03/05 06:43:15;;;;;;;;;;;;;;;;;;5073297;28;19935;-78
2024/03/05 06:45:43;;;;;;;;;;;;;;;;;;5069089;28;19936;-78
2024/03/05 06:48:12;;;;;;;;;;;;;;;;;;5069448;28;19928;-79
2024/03/05 06:50:41;;;;;;;;;;;;;;;;;;5070053;28;19936;-78
2024/03/05 06:58:38;;;;;;;;;;;;;;;;;;5060175;28;19974;-79
2024/03/05 07:01:07;;;;;;;;;;;;;;;;;;5065553;28;20019;-79
2024/03/05 07:03:35;;;;;;;;;;;;;;;;;;5066514;28;20005;-77
2024/03/05 07:06:06;;;;;;;;;;;;;;;;;;5069360;28;19931;-79
2024/03/05 07:08:33;;;;;;;;;;;;;;;;;;5068964;28;20431;-80
2024/03/05 07:11:01;;;;;;;;;;;;;;;;;;5065269;28;20035;-78
2024/03/05 07:13:28;;;;;;;;;;;;;;;;;;5065464;28;19929;-80
2024/03/05 07:15:56;;;;;;;;;;;;;;;;;;5069134;28;20010;-76
2024/03/05 07:18:23;;;;;;;;;;;;;;;;;;5054672;28;19933;-84
2024/03/05 07:20:50;;;;;;;;;;;;;;;;;;5065317;28;20032;-84
2024/03/05 07:23:17;;;;;;;;;;;;;;;;;;5058781;28;20035;-78
2024/03/05 07:25:44;;;;;;;;;;;;;;;;;;5057335;28;19928;-79
2024/03/05 07:28:11;;;;;;;;;;;;;;;;;;5064288;28;19962;-80
2024/03/05 07:30:41;;;;;;;;;;;;;;;;;;5062057;28;20324;-83
2024/03/05 07:33:08;;;;;;;;;;;;;;;;;;5063981;28;19932;-85
2024/03/05 07:35:36;;;;;;;;;;;;;;;;;;5073011;28;19925;-85
2024/03/05 07:38:03;;;;;;;;;;;;;;;;;;5069878;28;19925;-82
2024/03/05 07:40:30;;;;;;;;;;;;;;;;;;5068534;28;20004;-90
2024/03/05 07:42:59;;;;;;;;;;;;;;;;;;5061240;28;20471;-86
2024/03/05 07:45:26;;;;;;;;;;;;;;;;;;5063778;28;19924;-87
2024/03/05 07:47:53;;;;;;;;;;;;;;;;;;5070472;28;19971;-88
2024/03/05 07:50:20;;;;;;;;;;;;;;;;;;5064135;28;20451;-84
2024/03/05 07:52:47;;;;;;;;;;;;;;;;;;5064016;28;20026;-85
2024/03/05 07:55:14;;;;;;;;;;;;;;;;;;5063611;28;20019;-86
2024/03/05 07:57:41;;;;;;;;;;;;;;;;;;5055299;28;19935;-86
2024/03/05 08:00:11;;;;;;;;;;;;;;;;;;5066529;28;20463;-87
2024/03/05 08:02:39;;;;;;;;;;;;;;;;;;5065804;28;20326;-88
2024/03/05 08:05:06;;;;;;;;;;;;;;;;;;5066797;28;19928;-86
2024/03/05 08:07:35;;;;;;;;;;;;;;;;;;5058027;28;19963;-86
2024/03/05 08:10:03;;;;;;;;;;;;;;;;;;5069256;28;19951;-85
2024/03/05 08:12:31;;;;;;;;;;;;;;;;;;5055510;28;19998;-86
2024/03/05 08:14:57;;;;;;;;;;;;;;;;;;5066681;28;20373;-86
2024/03/05 08:17:25;;;;;;;;;;;;;;;;;;5068746;28;20019;-85
2024/03/05 08:19:52;;;;;;;;;;;;;;;;;;5062362;28;20031;-85
2024/03/05 08:22:20;;;;;;;;;;;;;;;;;;5061979;28;19934;-85
2024/03/05 08:24:49;;;;;;;;;;;;;;;;;;5070953;28;19941;-85
2024/03/05 08:27:16;;;;;;;;;;;;;;;;;;5071859;28;20035;-85
2024/03/05 08:29:44;;;;;;;;;;;;;;;;;;5071001;28;20023;-85
2024/03/05 08:32:11;;;;;;;;;;;;;;;;;;5075187;28;19928;-84
2024/03/05 08:34:38;;;;;;;;;;;;;;;;;;5064738;28;20211;-85
2024/03/05 08:37:05;;;;;;;;;;;;;;;;;;5068724;28;19935;-85
2024/03/05 08:39:32;;;;;;;;;;;;;;;;;;5070632;28;20023;-85
2024/03/05 08:42:00;;;;;;;;;;;;;;;;;;5065858;28;20050;-85
2024/03/05 08:44:27;;;;;;;;;;;;;;;;;;5069630;28;19951;-85
2024/03/05 08:46:55;;;;;;;;;;;;;;;;;;5066598;28;19932;-83
2024/03/05 08:49:25;;;;;;;;;;;;;;;;;;5070228;28;20433;-85
2024/03/05 08:51:52;;;;;;;;;;;;;;;;;;5065526;28;19924;-85
2024/03/05 08:54:19;;;;;;;;;;;;;;;;;;5064271;28;20027;-84
2024/03/05 08:56:47;;;;;;;;;;;;;;;;;;5063988;28;20027;-85
2024/03/05 08:59:14;;;;;;;;;;;;;;;;;;5067488;28;20021;-70
2024/03/05 09:01:41;;;;;;;;;;;;;;;;;;5055670;28;20024;-70
2024/03/05 09:04:09;;;;;;;;;;;;;;;;;;5069996;28;20110;-78
2024/03/05 09:06:36;;;;;;;;;;;;;;;;;;5059151;28;19928;-79
2024/03/05 09:09:03;;;;;;;;;;;;;;;;;;5064329;28;20489;-78
2024/03/05 09:11:31;;;;;;;;;;;;;;;;;;5063372;28;19929;-80
2024/03/05 09:14:00;;;;;;;;;;;;;;;;;;5063085;28;20197;-80
2024/03/05 09:16:28;;;;;;;;;;;;;;;;;;5062790;28;20019;-77
2024/03/05 09:18:55;;;;;;;;;;;;;;;;;;5071342;28;20110;-75
2024/03/05 09:21:22;;;;;;;;;;;;;;;;;;5066711;28;19972;-77
2024/03/05 09:23:50;;;;;;;;;;;;;;;;;;5070580;28;20027;-78
2024/03/05 09:26:16;;;;;;;;;;;;;;;;;;5068708;28;19936;-78
2024/03/05 09:28:43;;;;;;;;;;;;;;;;;;5061079;28;19929;-80
2024/03/05 09:31:11;;;;;;;;;;;;;;;;;;5069651;28;19933;-81
2024/03/05 09:33:38;;;;;;;;;;;;;;;;;;5070231;28;19933;-79
2024/03/05 09:36:08;;;;;;;;;;;;;;;;;;5062663;28;19956;-81
2024/03/05 09:38:35;;;;;;;;;;;;;;;;;;5060605;28;19929;-84
2024/03/05 09:41:02;;;;;;;;;;;;;;;;;;5066067;28;20310;-84
2024/03/05 09:43:29;;;;;;;;;;;;;;;;;;5059951;28;20336;-86
2024/03/05 09:45:58;;;;;;;;;;;;;;;;;;5069961;28;20005;-82
2024/03/05 09:48:26;;;;;;;;;;;;;;;;;;5057625;28;20058;-83
2024/03/05 09:50:53;;;;;;;;;;;;;;;;;;5067328;28;19942;-84
2024/03/05 09:53:20;;;;;;;;;;;;;;;;;;5069666;28;20495;-84
2024/03/05 09:55:47;;;;;;;;;;;;;;;;;;5068225;28;19981;-85
2024/03/05 09:58:14;;;;;;;;;;;;;;;;;;5067799;28;20490;-84
2024/03/05 10:00:41;;;;;;;;;;;;;;;;;;5061182;28;19933;-87
2024/03/05 10:03:08;;;;;;;;;;;;;;;;;;5065356;28;20019;-85
2024/03/05 10:05:35;;;;;;;;;;;;;;;;;;5070172;28;19999;-85
2024/03/05 10:08:04;;;;;;;;;;;;;;;;;;5064397;28;19944;-80
2024/03/05 10:10:31;;;;;;;;;;;;;;;;;;5070826;28;19929;-85
2024/03/05 10:12:58;;;;;;;;;;;;;;;;;;5063969;28;20021;-85
2024/03/05 10:15:25;;;;;;;;;;;;;;;;;;5065090;28;19932;-85
2024/03/05 10:17:52;;;;;;;;;;;;;;;;;;5066846;28;19928;-84
2024/03/05 10:20:19;;;;;;;;;;;;;;;;;;5066388;28;19924;-85
2024/03/05 10:22:46;;;;;;;;;;;;;;;;;;5064156;28;19964;-85
2024/03/05 10:25:13;;;;;;;;;;;;;;;;;;5070181;28;20016;-85
2024/03/05 10:27:40;;;;;;;;;;;;;;;;;;5066720;28;19982;-88
2024/03/05 10:30:07;;;;;;;;;;;;;;;;;;5073743;28;19983;-86
2024/03/05 10:32:34;;;;;;;;;;;;;;;;;;5068155;28;19983;-88
2024/03/05 10:35:02;;;;;;;;;;;;;;;;;;5077319;28;19972;-89
2024/03/05 10:37:29;;;;;;;;;;;;;;;;;;5084236;28;19931;-89
2024/03/05 10:39:56;;;;;;;;;;;;;;;;;;5074873;28;19925;-86
2024/03/05 10:42:25;;;;;;;;;;;;;;;;;;5073097;28;20019;-89
2024/03/05 10:44:52;;;;;;;;;;;;;;;;;;5071613;28;20364;-84
2024/03/05 10:47:19;;;;;;;;;;;;;;;;;;5061767;28;20050;-86
2024/03/05 10:49:46;;;;;;;;;;;;;;;;;;5076139;28;20386;-84
2024/03/05 10:52:13;;;;;;;;;;;;;;;;;;5056840;28;20003;-87
2024/03/05 10:54:42;;;;;;;;;;;;;;;;;;5065794;28;19938;-90
2024/03/05 10:57:09;;;;;;;;;;;;;;;;;;5066166;28;20297;-93
2024/03/05 10:59:41;;;;;;;;;;;;;;;;;;5066576;28;20027;-88
2024/03/05 11:02:09;;;;;;;;;;;;;;;;;;5072017;28;20000;-86
2024/03/05 11:04:36;;;;;;;;;;;;;;;;;;5066134;28;20323;-84
2024/03/05 11:07:05;;;;;;;;;;;;;;;;;;5069619;28;20241;-85
2024/03/05 11:09:32;;;;;;;;;;;;;;;;;;5065284;28;19936;-86
2024/03/05 11:11:59;;;;;;;;;;;;;;;;;;5063138;28;19925;-80
2024/03/05 11:14:26;;;;;;;;;;;;;;;;;;5068491;28;20037;-85
2024/03/05 11:16:53;;;;;;;;;;;;;;;;;;5088579;22;20070;-84
2024/03/05 11:19:20;;;;;;;;;;;;;;;;;;5057556;28;19976;-86
2024/03/05 11:21:47;;;;;;;;;;;;;;;;;;5061627;28;19971;-85
2024/03/05 11:24:14;;;;;;;;;;;;;;;;;;5061534;28;19960;-86
2024/03/05 11:26:41;;;;;;;;;;;;;;;;;;5058633;28;20315;-79
2024/03/05 11:29:08;;;;;;;;;;;;;;;;;;5053932;28;19928;-79
2024/03/05 11:31:35;;;;;;;;;;;;;;;;;;5057320;28;19932;-79
2024/03/05 11:34:02;;;;;;;;;;;;;;;;;;5060163;28;19935;-85
2024/03/05 11:36:29;;;;;;;;;;;;;;;;;;5054977;28;19967;-85
2024/03/05 11:38:56;;;;;;;;;;;;;;;;;;5064007;28;19928;-84
2024/03/05 11:41:23;;;;;;;;;;;;;;;;;;5064963;28;19935;-86
2024/03/05 11:43:51;;;;;;;;;;;;;;;;;;5066355;28;20002;-84
2024/03/05 11:46:18;;;;;;;;;;;;;;;;;;5066131;28;19932;-83
2024/03/05 11:48:45;;;;;;;;;;;;;;;;;;5063332;28;19932;-83
2024/03/05 11:51:12;;;;;;;;;;;;;;;;;;5064850;28;20645;-84
2024/03/05 11:53:40;;;;;;;;;;;;;;;;;;5069589;28;20445;-84
2024/03/05 11:56:08;;;;;;;;;;;;;;;;;;5067992;28;19934;-83
2024/03/05 11:58:37;;;;;;;;;;;;;;;;;;5067019;28;19932;-83
2024/03/05 12:01:04;;;;;;;;;;;;;;;;;;5067087;28;19939;-83
2024/03/05 12:03:31;;;;;;;;;;;;;;;;;;5067900;28;20000;-83
2024/03/05 12:05:58;;;;;;;;;;;;;;;;;;5065873;28;19935;-84
2024/03/05 12:08:25;;;;;;;;;;;;;;;;;;5065046;28;19971;-81
2024/03/05 12:10:52;;;;;;;;;;;;;;;;;;5065445;28;21644;-85
2024/03/05 12:13:19;;;;;;;;;;;;;;;;;;5070902;28;20011;-84
2024/03/05 12:15:46;;;;;;;;;;;;;;;;;;5070049;28;20304;-82
2024/03/05 12:18:14;;;;;;;;;;;;;;;;;;5067128;28;19925;-84
2024/03/05 12:20:41;;;;;;;;;;;;;;;;;;5065167;28;19947;-83
2024/03/05 12:23:08;;;;;;;;;;;;;;;;;;5067065;28;19932;-82
2024/03/05 12:25:35;;;;;;;;;;;;;;;;;;5064434;28;20015;-82
2024/03/05 12:28:02;;;;;;;;;;;;;;;;;;5068194;28;20011;-81
2024/03/05 12:30:29;;;;;;;;;;;;;;;;;;5060725;28;20031;-82
2024/03/05 12:32:56;;;;;;;;;;;;;;;;;;5063793;28;19991;-82
2024/03/05 12:35:25;;;;;;;;;;;;;;;;;;5053775;28;19932;-81
2024/03/05 12:37:52;;;;;;;;;;;;;;;;;;5064292;28;19978;-81
2024/03/05 12:40:19;;;;;;;;;;;;;;;;;;5059198;28;19935;-81
2024/03/05 12:42:47;;;;;;;;;;;;;;;;;;5069001;28;20023;-78
2024/03/05 12:45:14;;;;;;;;;;;;;;;;;;5052573;28;19935;-81
2024/03/05 12:47:41;;;;;;;;;;;;;;;;;;5061598;28;19947;-80
2024/03/05 12:50:09;;;;;;;;;;;;;;;;;;5070632;28;19985;-79
2024/03/05 12:52:36;;;;;;;;;;;;;;;;;;5063106;28;19940;-79
2024/03/05 12:55:03;;;;;;;;;;;;;;;;;;5065297;28;19932;-85
2024/03/05 12:57:30;;;;;;;;;;;;;;;;;;5069117;28;19934;-83
2024/03/05 12:59:57;;;;;;;;;;;;;;;;;;5070215;28;19983;-82
2024/03/05 13:02:24;;;;;;;;;;;;;;;;;;5063768;28;20298;-84
2024/03/05 13:04:51;;;;;;;;;;;;;;;;;;5069590;28;20039;-85
2024/03/05 13:07:18;;;;;;;;;;;;;;;;;;5067570;28;20020;-84
2024/03/05 13:09:47;;;;;;;;;;;;;;;;;;5075294;28;20397;-74
2024/03/05 13:12:14;;;;;;;;;;;;;;;;;;5069540;28;19930;-86
2024/03/05 13:14:41;;;;;;;;;;;;;;;;;;5071019;28;19928;-86
2024/03/05 13:17:09;;;;;;;;;;;;;;;;;;5072614;28;20015;-84
2024/03/05 13:19:36;;;;;;;;;;;;;;;;;;5072154;28;19932;-83
2024/03/05 13:22:03;;;;;;;;;;;;;;;;;;5061858;28;19928;-86
2024/03/05 13:24:31;;;;;;;;;;;;;;;;;;5070245;28;19967;-86
2024/03/05 13:26:59;;;;;;;;;;;;;;;;;;5070215;28;19980;-85
2024/03/05 13:29:26;;;;;;;;;;;;;;;;;;5080800;28;20370;-84
2024/03/05 13:31:53;;;;;;;;;;;;;;;;;;5069699;28;20023;-86
2024/03/05 13:34:22;;;;;;;;;;;;;;;;;;5068342;28;19935;-81
2024/03/05 13:36:49;;;;;;;;;;;;;;;;;;5066843;28;19951;-84
2024/03/05 13:39:18;;;;;;;;;;;;;;;;;;5071137;28;20002;-86
2024/03/05 13:41:45;;;;;;;;;;;;;;;;;;5058518;28;19924;-86
2024/03/05 13:44:12;;;;;;;;;;;;;;;;;;5053885;28;19951;-84
2024/03/05 13:46:39;;;;;;;;;;;;;;;;;;5062810;28;19930;-84
2024/03/05 13:49:06;;;;;;;;;;;;;;;;;;5059619;28;19933;-83
2024/03/05 13:51:33;;;;;;;;;;;;;;;;;;5069896;28;19928;-84
2024/03/05 13:54:02;;;;;;;;;;;;;;;;;;5063980;28;19925;-84
2024/03/05 13:56:30;;;;;;;;;;;;;;;;;;5058113;28;19932;-85
2024/03/05 13:58:59;;;;;;;;;;;;;;;;;;5062944;28;19932;-83
2024/03/05 14:01:26;;;;;;;;;;;;;;;;;;5068945;28;20322;-84
2024/03/05 14:03:54;;;;;;;;;;;;;;;;;;5061049;28;20024;-76
2024/03/05 14:06:21;;;;;;;;;;;;;;;;;;5060379;28;19936;-72
2024/03/05 14:08:48;;;;;;;;;;;;;;;;;;5064390;28;20429;-72
2024/03/05 14:11:15;;;;;;;;;;;;;;;;;;5066231;28;19982;-72
2024/03/05 14:13:42;;;;;;;;;;;;;;;;;;5068609;28;19981;-72
2024/03/05 14:16:12;;;;;;;;;;;;;;;;;;5059754;28;19932;-72
2024/03/05 14:18:40;;;;;;;;;;;;;;;;;;5066125;28;19928;-72
2024/03/05 14:21:07;;;;;;;;;;;;;;;;;;5068149;28;19985;-73
2024/03/05 14:23:34;;;;;;;;;;;;;;;;;;5062850;28;19970;-73
2024/03/05 14:26:01;;;;;;;;;;;;;;;;;;5051110;28;20414;-73
2024/03/05 14:28:30;;;;;;;;;;;;;;;;;;5059966;28;19932;-73
2024/03/05 14:30:57;;;;;;;;;;;;;;;;;;5062740;28;19990;-73
2024/03/05 14:33:24;;;;;;;;;;;;;;;;;;5061096;28;20019;-72
2024/03/05 14:35:51;;;;;;;;;;;;;;;;;;5060609;28;20294;-73
2024/03/05 14:38:20;;;;;;;;;;;;;;;;;;5062752;28;19982;-73
2024/03/05 14:40:47;;;;;;;;;;;;;;;;;;5067315;28;19967;-74
2024/03/05 14:43:14;;;;;;;;;;;;;;;;;;5067053;28;20379;-74
2024/03/05 14:45:41;;;;;;;;;;;;;;;;;;5060903;28;20403;-74
2024/03/05 14:48:09;;;;;;;;;;;;;;;;;;5069103;28;20235;-79
2024/03/05 14:50:36;;;;;;;;;;;;;;;;;;5066439;28;19928;-74
2024/03/05 14:53:03;;;;;;;;;;;;;;;;;;5066624;28;20487;-73
2024/03/05 14:55:30;;;;;;;;;;;;;;;;;;5066431;28;19929;-74
2024/03/05 14:57:57;;;;;;;;;;;;;;;;;;5064314;28;19932;-73
2024/03/05 15:00:24;;;;;;;;;;;;;;;;;;5066840;28;20375;-74
2024/03/05 15:02:51;;;;;;;;;;;;;;;;;;5068599;28;19929;-74
2024/03/05 15:05:18;;;;;;;;;;;;;;;;;;5065197;28;19990;-81
2024/03/05 15:07:45;;;;;;;;;;;;;;;;;;5054758;28;19975;-83
2024/03/05 15:10:13;;;;;;;;;;;;;;;;;;5068871;28;20440;-78
2024/03/05 15:12:40;;;;;;;;;;;;;;;;;;5064284;28;19935;-83
2024/03/05 15:15:08;;;;;;;;;;;;;;;;;;5064912;28;20027;-81
2024/03/05 15:17:36;;;;;;;;;;;;;;;;;;5063206;28;19929;-82
2024/03/05 15:20:09;;;;;;;;;;;;;;;;;;5056210;28;19980;-82
2024/03/05 15:22:36;;;;;;;;;;;;;;;;;;5064236;28;20321;-84
2024/03/05 15:25:03;;;;;;;;;;;;;;;;;;5068710;28;19933;-84
2024/03/05 15:27:30;;;;;;;;;;;;;;;;;;5068998;28;19936;-85
2024/03/05 15:29:57;;;;;;;;;;;;;;;;;;5061795;28;19928;-82
2024/03/05 15:32:24;;;;;;;;;;;;;;;;;;5066631;28;19940;-82
2024/03/05 15:34:51;;;;;;;;;;;;;;;;;;5068579;28;19996;-84
2024/03/05 15:37:18;;;;;;;;;;;;;;;;;;5067372;28;19932;-83
2024/03/05 15:39:46;;;;;;;;;;;;;;;;;;5070495;28;19994;-85
2024/03/05 15:42:13;;;;;;;;;;;;;;;;;;5064252;28;19986;-82
2024/03/05 15:44:40;;;;;;;;;;;;;;;;;;5057513;28;19951;-83
2024/03/05 15:47:08;;;;;;;;;;;;;;;;;;5068806;28;19955;-83
2024/03/05 15:49:35;;;;;;;;;;;;;;;;;;5062880;28;19935;-81
2024/03/05 15:52:04;;;;;;;;;;;;;;;;;;5072946;28;19928;-84
2024/03/05 15:54:31;;;;;;;;;;;;;;;;;;5068046;28;20054;-85
2024/03/05 15:56:58;;;;;;;;;;;;;;;;;;5066270;28;19956;-84
2024/03/05 16:02:10;;;;;;;;;;;;;;;;;;5070496;28;19927;-85
2024/03/05 16:04:37;;;;;;;;;;;;;;;;;;5060863;28;19929;-83
2024/03/05 16:07:05;;;;;;;;;;;;;;;;;;5060195;28;20015;-84
2024/03/05 16:09:32;;;;;;;;;;;;;;;;;;5071420;28;20382;-83
2024/03/05 16:11:59;;;;;;;;;;;;;;;;;;5063998;28;20022;-85
2024/03/05 16:14:26;;;;;;;;;;;;;;;;;;5062064;28;20402;-82
2024/03/05 16:16:53;;;;;;;;;;;;;;;;;;5070064;28;19932;-83
2024/03/05 16:19:21;;;;;;;;;;;;;;;;;;5063936;28;20022;-80
2024/03/05 16:21:49;;;;;;;;;;;;;;;;;;5057735;28;20306;-79
2024/03/05 16:24:16;;;;;;;;;;;;;;;;;;5063487;28;19936;-79
2024/03/05 16:26:44;;;;;;;;;;;;;;;;;;5065251;28;20109;-78
2024/03/05 16:29:11;;;;;;;;;;;;;;;;;;5065960;28;20027;-78
2024/03/05 16:31:38;;;;;;;;;;;;;;;;;;5065419;28;20318;-80
2024/03/05 16:34:05;;;;;;;;;;;;;;;;;;5061195;28;19935;-80
2024/03/05 16:36:33;;;;;;;;;;;;;;;;;;5062182;28;19928;-81
2024/03/05 16:39:00;;;;;;;;;;;;;;;;;;5067099;28;19935;-81
2024/03/05 16:41:27;;;;;;;;;;;;;;;;;;5064497;28;20280;-80
2024/03/05 16:43:55;;;;;;;;;;;;;;;;;;5072734;28;19928;-80
2024/03/05 16:46:23;;;;;;;;;;;;;;;;;;5063695;28;19936;-79
2024/03/05 16:48:50;;;;;;;;;;;;;;;;;;5069956;28;19935;-80
2024/03/05 16:51:17;;;;;;;;;;;;;;;;;;5064137;28;19928;-79
2024/03/05 16:53:44;;;;;;;;;;;;;;;;;;5072648;28;20015;-79